Latest Weather Observations for Parawa West

IDS60801

Issued at 7:21 am CDT Thursday 14 November 2019 (issued every 10 minutes, with the page automatically refreshed every 10 minutes)

About weather observations | Map of weather stations | Latest weather observations for SA | Other Formats
Station Details ID: 023875 Name: SECOND VALLEY FOREST AWS Lat: -35.57 Lon: 138.29 Height: 341.0 m
Data from the previous 72 hours. | See also: Recent months at Parawa West
Date/Time
CDT
Temp
°C
App
Temp
°C
Dew
Point
°C
Rel
Hum
%
Delta-T
°C
Wind Press
QNH
hPa
Press
MSL
hPa
Rain since
9am
mm
Dir  Spd
km/h
Gust
km/h
Spd
kts
Gust
kts
14/07:00am 10.0 7.0 9.2 95 0.4 W 15 20 8 11 1019.3 1018.8 0.2
14/06:30am 10.0 7.4 9.4 96 0.3 W 13 22 7 12 1019.1 1018.6 0.2
14/06:00am 9.8 7.9 9.2 96 0.3 WNW 9 15 5 8 1018.9 1018.4 0.2
14/05:30am 9.8 7.5 9.0 95 0.4 W 11 15 6 8 1019.0 1018.5 0.2
14/05:00am 10.1 7.9 9.2 94 0.5 W 11 19 6 10 1019.1 1018.6 0.2
14/04:30am 9.9 7.6 9.0 94 0.5 W 11 17 6 9 1019.1 1018.6 0.2
14/04:00am 10.0 7.3 8.9 93 0.6 W 13 19 7 10 1019.1 1018.6 0.2
14/03:30am 10.4 7.5 8.2 86 1.1 W 13 22 7 12 1019.2 1018.7 0.2
14/03:00am 10.5 8.4 8.1 85 1.2 W 9 17 5 9 1019.7 1019.2 0.2
14/02:30am 10.3 8.1 7.9 85 1.2 W 9 15 5 8 1019.9 1019.4 0.2
14/02:00am 9.5 7.2 7.6 88 0.9 W 9 15 5 8 1020.4 1019.8 0.2
14/01:30am 9.8 6.8 7.6 86 1.1 W 13 17 7 9 1020.6 1020.0 0.2
14/01:00am 9.5 6.7 7.1 85 1.2 W 11 15 6 8 1020.9 1020.4 0.2
14/12:30am 10.3 6.8 7.4 82 1.4 W 15 22 8 12 1021.0 1020.5 0.2
14/12:00am 10.6 7.6 7.8 83 1.4 W 13 19 7 10 1021.3 1020.8 0.2
 
Date/Time
CDT
Temp
°C
App
Temp
°C
Dew
Point
°C
Rel
Hum
%
Delta-T
°C
Wind Press
QNH
hPa
Press
MSL
hPa
Rain since
9am
mm
Dir  Spd
km/h
Gust
km/h
Spd
kts
Gust
kts
13/11:30pm 10.2 7.6 7.8 85 1.2 WSW 11 17 6 9 1021.3 1020.8 0.2
13/11:00pm 10.7 8.2 8.1 84 1.3 WSW 11 15 6 8 1021.9 1021.4 0.2
13/10:30pm 10.7 7.9 8.6 87 1.0 WSW 13 20 7 11 1022.0 1021.5 0.2
13/10:00pm 10.4 8.0 8.5 88 0.9 WSW 11 17 6 9 1021.9 1021.4 0.2
13/09:30pm 10.1 8.1 8.5 90 0.8 SW 9 13 5 7 1021.8 1021.3 0.2
13/09:00pm 10.8 8.5 9.1 89 0.9 SW 11 17 6 9 1021.9 1021.4 0.2
13/08:30pm 11.4 10.0 9.5 88 1.0 SW 7 15 4 8 1021.8 1021.3 0.2
13/08:00pm 11.6 9.8 9.5 87 1.1 SW 9 17 5 9 1021.6 1021.1 0.2
13/07:30pm 11.9 10.5 9.6 86 1.2 SSW 7 13 4 7 1021.5 1021.0 0.2
13/07:00pm 12.3 11.1 9.7 84 1.3 SW 6 9 3 5 1021.2 1020.7 0.2
13/06:30pm 12.7 10.9 9.3 80 1.7 SW 9 17 5 9 1021.2 1020.7 0.2
13/06:00pm 13.9 12.5 10.9 82 1.6 SSW 9 15 5 8 1021.3 1020.8 0.2
13/05:30pm 13.1 10.3 10.1 82 1.6 W 15 22 8 12 1021.3 1020.8 0.2
13/05:00pm 13.3 10.0 9.7 79 1.9 WNW 17 24 9 13 1021.5 1021.0 0.2
13/04:30pm 14.5 11.3 9.9 74 2.4 W 17 24 9 13 1021.4 1020.9 0.2
13/04:00pm 14.5 11.0 10.1 75 2.3 WNW 19 26 10 14 1021.3 1020.8 0.2
13/03:30pm 14.2 10.6 10.0 76 2.2 WNW 19 28 10 15 1021.6 1021.1 0.2
13/03:00pm 14.5 11.0 10.3 76 2.2 WNW 19 28 10 15 1021.6 1021.1 0.2
13/02:30pm 12.5 9.1 9.0 79 1.8 WNW 17 26 9 14 1022.1 1021.6 0.2
13/02:00pm 12.4 9.6 8.7 78 1.9 WNW 13 20 7 11 1022.4 1021.9 0.2
13/01:30pm 12.8 10.1 8.9 77 2.0 WNW 13 28 7 15 1022.4 1021.9 0.2
13/01:00pm 13.6 10.8 8.7 72 2.5 WNW 13 19 7 10 1022.3 1021.8 0.2
13/12:30pm 13.0 9.9 8.9 76 2.1 WNW 15 22 8 12 1022.3 1021.8 0.2
13/12:00pm 13.4 10.4 7.8 69 2.8 W 13 24 7 13 1022.5 1022.0 0.2
13/11:30am 12.9 9.2 8.0 72 2.5 WNW 17 24 9 13 1022.5 1022.0 0.2
13/11:00am 13.0 9.7 7.9 71 2.6 W 15 28 8 15 1022.6 1022.1 0.0
13/10:30am 12.3 8.4 7.2 71 2.5 W 17 26 9 14 1022.6 1022.1 0.0
13/10:00am 12.9 9.9 7.8 71 2.6 SW 13 22 7 12 1022.7 1022.2 0.0
13/09:30am 11.2 7.1 6.3 72 2.3 W 17 26 9 14 1022.6 1022.1 0.0
13/09:00am 11.2 7.3 7.3 77 1.9 WSW 17 28 9 15 1022.6 1022.1 0.0
13/08:30am 10.6 7.2 7.5 81 1.5 WSW 15 24 8 13 1022.5 1022.0 0.0
13/08:00am 10.6 7.3 8.0 84 1.3 WSW 15 22 8 12 1022.1 1021.6 0.0
13/07:30am 9.8 7.3 8.1 89 0.8 W 11 17 6 9 1021.9 1021.4 0.0
13/07:00am 8.9 6.6 7.5 91 0.7 W 9 15 5 8 1021.5 1021.0 0.0
13/06:30am 8.6 5.9 7.5 93 0.5 W 11 15 6 8 1021.1 1020.6 0.0
13/06:00am 8.6 5.9 7.5 93 0.5 W 11 17 6 9 1020.7 1020.2 0.0
13/05:30am 8.9 6.6 7.5 91 0.7 WSW 9 17 5 9 1020.5 1019.9 0.0
13/05:00am 8.5 6.6 7.6 94 0.4 W 7 11 4 6 1020.4 1019.8 0.0
13/04:30am 8.1 6.3 7.2 94 0.4 WSW 6 11 3 6 1020.5 1019.9 0.0
13/04:00am 8.4 5.8 7.6 95 0.4 WSW 11 19 6 10 1020.9 1020.4 0.0
13/03:30am 8.7 5.7 7.8 94 0.4 WSW 13 20 7 11 1020.9 1020.4 0.0
13/03:00am 8.5 5.9 7.7 95 0.4 WSW 11 20 6 11 1021.1 1020.6 0.0
13/02:30am 8.5 6.3 7.7 95 0.4 WNW 9 13 5 7 1021.3 1020.8 0.0
13/02:00am 8.9 5.9 7.5 91 0.7 W 13 19 7 10 1021.7 1021.2 0.0
13/01:30am 9.4 7.3 6.8 84 1.2 W 7 13 4 7 1021.9 1021.4 0.0
13/01:00am 9.2 6.6 6.3 82 1.4 WSW 9 15 5 8 1022.0 1021.5 0.0
13/12:30am 9.4 6.4 6.1 80 1.5 WSW 11 17 6 9 1022.1 1021.6 0.0
13/12:00am 9.3 6.3 5.9 79 1.6 SW 11 19 6 10 1022.4 1021.9 0.0
 
Date/Time
CDT
Temp
°C
App
Temp
°C
Dew
Point
°C
Rel
Hum
%
Delta-T
°C
Wind Press
QNH
hPa
Press
MSL
hPa
Rain since
9am
mm
Dir  Spd
km/h
Gust
km/h
Spd
kts
Gust
kts
12/11:30pm 8.6 5.4 5.0 78 1.6 SW 11 19 6 10 1022.4 1021.9 0.0
12/11:00pm 8.7 5.1 4.9 77 1.7 SW 13 19 7 10 1022.2 1021.7 0.0
12/10:30pm 9.0 4.8 5.6 79 1.6 WSW 17 28 9 15 1022.3 1021.8 0.0
12/10:00pm 8.9 5.3 5.1 77 1.7 WSW 13 22 7 12 1022.2 1021.7 0.0
12/09:30pm 8.8 4.7 4.4 74 2.0 SW 15 28 8 15 1021.9 1021.4 0.0
12/09:00pm 8.9 5.3 4.9 76 1.8 WSW 13 19 7 10 1021.6 1021.1 0.0
12/08:30pm 9.0 5.4 5.2 77 1.7 SW 13 20 7 11 1021.5 1021.0 0.0
12/08:00pm 9.8 6.4 5.8 76 1.9 SW 13 24 7 13 1021.3 1020.8 0.0
12/07:30pm 10.2 5.9 5.4 72 2.2 SW 17 24 9 13 1020.9 1020.4 0.0
12/07:00pm 10.8 5.8 4.5 65 2.9 SW 20 30 11 16 1020.5 1019.9 0.0
12/06:30pm 11.9 7.2 5.1 63 3.2 SW 19 28 10 15 1020.0 1019.5 0.0
12/06:00pm 11.3 6.0 5.0 65 2.9 SSW 22 35 12 19 1019.7 1019.2 0.0
12/05:30pm 12.4 7.1 5.1 61 3.4 SW 22 37 12 20 1019.4 1018.9 0.0
12/05:00pm 12.5 7.2 5.2 61 3.4 SW 22 39 12 21 1019.1 1018.6 0.0
12/04:30pm 12.4 6.8 5.3 62 3.3 SW 24 39 13 21 1018.9 1018.4 0.0
12/04:00pm 12.3 6.9 6.4 67 2.9 SSW 24 37 13 20 1018.7 1018.2 0.0
12/03:30pm 12.3 7.0 6.8 69 2.7 SW 24 37 13 20 1018.8 1018.3 0.0
12/03:00pm 13.1 7.6 5.8 61 3.5 SW 24 37 13 20 1018.8 1018.3 0.0
12/02:30pm 11.5 6.3 7.4 76 2.0 SSW 24 39 13 21 1018.8 1018.3 0.0
12/02:00pm 13.9 8.8 6.0 59 3.8 SW 22 37 12 20 1018.6 1018.1 0.0
12/01:30pm 12.9 6.9 3.3 52 4.3 WSW 24 37 13 20 1018.5 1018.0 0.0
12/01:00pm 13.5 8.2 3.0 49 4.8 SW 20 32 11 17 1018.4 1017.9 0.0
12/12:30pm 12.8 6.6 4.5 57 3.9 WSW 26 43 14 23 1018.4 1017.9 0.0
12/12:00pm 10.7 6.5 5.7 71 2.3 WSW 17 30 9 16 1018.4 1017.9 0.0
12/11:30am 12.4 7.5 4.9 60 3.5 WSW 20 35 11 19 1018.0 1017.4 0.0
12/11:00am 11.7 6.9 4.4 61 3.4 WSW 19 33 10 18 1017.8 1017.2 0.0
12/10:30am 9.8 5.0 5.4 74 2.0 SW 20 35 11 19 1017.9 1017.3 0.0
12/10:00am 10.9 5.3 3.2 59 3.4 WSW 22 35 12 19 1017.3 1016.7 0.0
12/09:30am 10.6 5.8 5.4 70 2.4 SW 20 39 11 21 1017.1 1016.6 0.0
12/09:00am 9.3 4.8 6.0 80 1.5 WSW 19 43 10 23 1016.9 1016.4 0.0
12/08:30am 10.0 6.3 6.3 78 1.8 WSW 15 26 8 14 1016.4 1015.9 0.0
12/08:00am 9.3 5.2 6.2 81 1.5 SW 17 28 9 15 1015.9 1015.4 0.0
12/07:30am 8.7 5.9 7.0 89 0.8 WSW 11 19 6 10 1015.4 1014.8 0.0
12/07:00am 9.3 5.9 5.7 78 1.7 SW 13 24 7 13 1015.1 1014.5 0.0
12/06:30am 9.1 5.4 4.7 74 2.0 WSW 13 22 7 12 1014.7 1014.1 0.0
12/06:00am 8.8 5.4 4.2 73 2.1 SW 11 17 6 9 1013.9 1013.4 0.0
12/05:30am 9.0 5.1 3.2 67 2.5 SSW 13 19 7 10 1013.5 1013.0 0.0
12/05:00am 9.1 4.0 4.1 71 2.2 SW 20 39 11 21 1013.1 1012.6 0.0
12/04:30am 9.2 4.6 5.4 77 1.8 SW 19 30 10 16 1012.9 1012.3 0.0
12/04:00am 9.4 5.4 6.5 82 1.4 SW 17 28 9 15 1012.7 1012.1 0.0
12/03:30am 9.4 4.7 5.2 75 1.9 SSW 19 32 10 17 1012.4 1011.8 0.0
12/03:00am 9.1 4.4 5.3 77 1.7 SSW 19 32 10 17 1012.2 1011.6 0.0
12/02:30am 8.9 3.6 4.9 76 1.8 SSW 22 35 12 19 1012.0 1011.4 0.0
12/02:00am 9.6 4.5 6.1 79 1.6 SSW 22 35 12 19 1011.7 1011.1 0.0
12/01:35am 9.8 3.6 6.2 78 1.7 SSW 28 46 15 25 1011.6 1011.0 0.0
12/01:30am 9.7 4.2 6.1 78 1.7 SSW 24 43 13 23 1011.6 1011.0 0.0
12/01:00am 9.5 2.5 5.9 78 1.7 SSW 32 48 17 26 1011.2 1010.6 0.0
12/12:30am 9.4 2.5 6.5 82 1.4 SSW 32 44 17 24 1010.5 1010.0 0.0
12/12:13am 9.8 3.1 7.4 85 1.2 SSW 32 52 17 28 1010.4 1009.8 0.0
12/12:00am 9.8 3.0 7.7 87 1.0 SSW 33 50 18 27 1010.0 1009.4 0.0
 
Date/Time
CDT
Temp
°C
App
Temp
°C
Dew
Point
°C
Rel
Hum
%
Delta-T
°C
Wind Press
QNH
hPa
Press
MSL
hPa
Rain since
9am
mm
Dir  Spd
km/h
Gust
km/h
Spd
kts
Gust
kts
11/11:49pm 9.8 2.7 7.9 88 0.9 S 35 56 19 30 1009.8 1009.2 0.0
11/11:30pm 9.9 2.1 8.2 89 0.8 SSW 39 54 21 29 1009.5 1008.9 0.0
11/11:12pm 10.1 2.9 9.2 94 0.5 SSW 37 61 20 33 1009.1 1008.5 0.0
11/11:00pm 10.2 3.1 9.6 96 0.3 SSW 37 54 20 29 1008.8 1008.2 0.0
11/10:33pm 10.7 4.2 10.2 97 0.3 SSW 35 65 19 35 1008.5 1007.9 0.0
11/10:30pm 10.8 4.3 10.2 96 0.3 SSW 35 52 19 28 1008.5 1007.9 0.0
11/10:02pm 11.6 5.6 10.8 95 0.4 SSW 33 61 18 33 1007.6 1007.0 0.0
11/10:00pm 11.8 5.9 11.0 95 0.4 SSW 33 46 18 25 1007.6 1007.0 0.0
11/09:30pm 12.5 6.4 11.6 94 0.5 SSW 35 50 19 27 1007.0 1006.4 0.0
11/09:00pm 13.6 8.5 11.8 89 1.0 SSW 30 41 16 22 1005.9 1005.3 0.0
11/08:30pm 15.6 11.7 10.8 73 2.6 SSW 22 37 12 20 1004.8 1004.2 0.0
11/08:00pm 17.1 15.6 10.5 65 3.6 SSE 9 15 5 8 1004.6 1004.0 0.0
11/07:30pm 20.9 19.3 8.9 46 6.5 NW 7 9 4 5 1004.2 1003.6 0.0
11/07:00pm 21.8 18.2 8.3 42 7.2 NW 17 32 9 17 1004.0 1003.4 0.0
11/06:30pm 24.5 21.6 2.6 24 10.8 WNW 7 17 4 9 1002.9 1002.2 0.0
11/06:00pm 25.9 23.3 4.4 25 11.0 NNW 7 20 4 11 1003.2 1002.6 0.0
11/05:30pm 26.7 24.3 5.1 25 11.3 NNW 7 19 4 10 1003.6 1003.0 0.0
11/05:00pm 26.1 23.1 4.0 24 11.2 NW 9 20 5 11 1003.8 1003.2 0.0
11/04:30pm 26.5 23.2 4.3 24 11.4 NNW 11 24 6 13 1004.0 1003.4 0.0
11/04:00pm 25.4 22.9 4.5 26 10.6 NNW 7 22 4 12 1004.6 1004.0 0.0
11/03:30pm 25.0 22.4 4.2 26 10.6 NNW 7 20 4 11 1005.5 1004.9 0.0
11/03:00pm 26.0 23.4 6.1 28 10.5 NNW 9 30 5 16 1006.4 1005.8 0.0
11/02:30pm 26.3 21.7 3.5 23 11.5 NW 17 33 9 18 1007.0 1006.4 0.0
11/02:00pm 26.2 22.4 5.7 27 10.7 NW 15 32 8 17 1007.3 1006.7 0.0
11/01:30pm 25.7 21.4 5.3 27 10.6 NNW 17 30 9 16 1007.6 1007.0 0.0
11/01:00pm 25.5 20.6 6.7 30 10.0 NW 22 37 12 20 1007.8 1007.2 0.0
11/12:30pm 24.7 18.8 6.0 30 9.8 NW 26 48 14 26 1007.9 1007.3 0.0
11/12:00pm 24.6 19.7 6.8 32 9.4 NW 22 37 12 20 1008.4 1007.8 0.0
11/11:30am 23.4 18.6 7.5 36 8.5 NW 22 35 12 19 1009.0 1008.4 0.0
11/11:00am 22.4 18.1 7.0 37 8.1 NW 19 33 10 18 1009.1 1008.5 0.0
11/10:30am 21.0 18.0 7.6 42 7.0 NW 13 20 7 11 1009.3 1008.7 0.0
11/10:00am 18.7 14.8 6.9 46 6.0 NW 17 32 9 17 1009.5 1008.9 0.0
11/09:30am 19.4 15.0 6.5 43 6.6 NW 19 39 10 21 1009.6 1009.0 0.0
11/09:00am 19.1 15.5 6.9 45 6.3 NW 15 24 8 13 1009.6 1009.0 0.0
11/08:30am 18.3 14.5 5.8 44 6.2 NW 15 28 8 15 1009.6 1009.0 0.0
11/08:00am 17.8 13.9 5.4 44 6.1 NW 15 28 8 15 1009.5 1008.9 0.0
11/07:30am 17.1 12.8 5.1 45 5.9 NW 17 32 9 17 1009.5 1008.9 0.0

Other formats

Comma delimited format used in spreadsheet applications
http://www.bom.gov.au/fwo/IDS60801/IDS60801.94811.axf

JavaScript Object Notation format (JSON) in row-major order
http://www.bom.gov.au/fwo/IDS60801/IDS60801.94811.json

Data quality

Most of these data are generated automatically and are frequently updated. Quality checks on data are not normally performed. It is possible for incorrect values to appear. Refer to information at About Latest Weather Observations and please check the disclaimer before using these data.